Time;durP1;ratioP1;P1;durP2;ratioP2;P2;SDS_P1;SDS_P2;PMS_P1;PMS_P2;Temp;Humidity;BMP_temperature;BMP_pressure;BME280_temperature;BME280_humidity;BME280_pressure;Samples;Min_cycle;Max_cycle;Signal;HPM_P1;HPM_P2
2023/04/11 00:02:06;;;;;;;7.67;5.07;;;10.20;99.90;;;;;;5031627;28;20525;-49
2023/04/11 00:04:33;;;;;;;5.40;4.43;;;10.30;99.90;;;;;;5032677;28;20206;-49
2023/04/11 00:06:59;;;;;;;4.90;3.90;;;10.30;99.90;;;;;;5033870;28;20191;-49
2023/04/11 00:09:25;;;;;;;5.50;4.70;;;10.30;99.90;;;;;;5029624;28;20539;-49
2023/04/11 00:11:51;;;;;;;5.00;3.97;;;10.20;1.00;;;;;;5032443;28;20446;-50
2023/04/11 00:14:17;;;;;;;5.27;4.30;;;10.20;1.00;;;;;;5032692;28;20804;-49
2023/04/11 00:16:43;;;;;;;6.13;4.57;;;10.20;1.00;;;;;;5031114;28;20187;-49
2023/04/11 00:19:08;;;;;;;5.43;4.27;;;10.20;1.00;;;;;;5034395;28;20449;-50
2023/04/11 00:21:38;;;;;;;6.03;4.30;;;10.20;1.00;;;;;;5033294;28;20190;-49
2023/04/11 00:24:07;;;;;;;6.40;4.40;;;10.20;1.00;;;;;;5031722;28;20189;-49
2023/04/11 00:26:32;;;;;;;6.97;4.63;;;10.20;1.00;;;;;;5031844;28;20859;-49
2023/04/11 00:28:58;;;;;;;7.00;4.40;;;10.30;1.00;;;;;;5030546;28;20564;-50
2023/04/11 00:31:23;;;;;;;6.37;3.97;;;10.20;99.90;;;;;;5032538;28;20553;-50
2023/04/11 00:33:49;;;;;;;5.60;3.67;;;10.20;99.90;;;;;;5031714;28;20211;-49
2023/04/11 00:36:15;;;;;;;8.60;4.40;;;10.20;99.90;;;;;;5029046;28;20191;-50
2023/04/11 00:38:41;;;;;;;6.17;4.13;;;10.20;99.90;;;;;;5031232;28;20203;-49
2023/04/11 00:41:07;;;;;;;8.70;4.00;;;10.20;99.90;;;;;;5031508;28;20206;-50
2023/04/11 00:43:33;;;;;;;6.00;4.00;;;10.10;1.00;;;;;;5031515;28;20438;-49
2023/04/11 00:45:59;;;;;;;6.37;4.17;;;10.10;1.00;;;;;;5033402;28;20442;-50
2023/04/11 00:48:27;;;;;;;7.77;4.10;;;10.10;1.00;;;;;;5030711;28;20310;-49
2023/04/11 00:50:54;;;;;;;7.90;3.70;;;10.20;99.90;;;;;;5030292;28;20499;-49
2023/04/11 00:53:20;;;;;;;6.50;3.70;;;10.20;99.90;;;;;;5030486;28;20446;-50
2023/04/11 00:55:45;;;;;;;9.37;4.67;;;10.20;1.00;;;;;;5030495;28;20449;-50
2023/04/11 00:58:12;;;;;;;6.63;3.87;;;10.10;1.00;;;;;;5031712;28;20183;-50
2023/04/11 01:00:38;;;;;;;5.90;3.47;;;10.10;1.00;;;;;;5030054;28;20241;-49
2023/04/11 01:03:04;;;;;;;10.50;3.70;;;10.10;1.00;;;;;;5032814;28;20449;-49
2023/04/11 01:05:31;;;;;;;8.37;3.80;;;10.10;1.00;;;;;;5031022;28;20218;-50
2023/04/11 01:07:58;;;;;;;4.60;3.67;;;10.10;1.00;;;;;;5032321;28;20191;-50
2023/04/11 01:10:27;;;;;;;4.00;3.07;;;10.10;1.00;;;;;;5030607;28;20557;-50
2023/04/11 01:12:53;;;;;;;5.87;3.13;;;10.00;1.00;;;;;;5033465;28;20442;-49
2023/04/11 01:15:19;;;;;;;5.83;3.60;;;10.10;1.00;;;;;;5032554;28;20451;-49
2023/04/11 01:17:46;;;;;;;5.97;3.60;;;10.10;1.00;;;;;;5030880;28;20838;-49
2023/04/11 01:20:12;;;;;;;6.33;3.23;;;10.00;1.00;;;;;;5030658;28;20635;-50
2023/04/11 01:22:40;;;;;;;5.60;3.50;;;10.00;99.90;;;;;;5031844;28;20445;-49
2023/04/11 01:25:06;;;;;;;4.83;3.37;;;10.00;99.90;;;;;;5029200;28;20728;-49
2023/04/11 01:27:33;;;;;;;5.70;3.50;;;10.00;99.90;;;;;;5062454;28;20520;-49
2023/04/11 01:29:59;;;;;;;4.00;3.47;;;9.90;99.90;;;;;;5030257;28;20476;-49
2023/04/11 01:32:25;;;;;;;5.80;3.97;;;9.90;99.90;;;;;;5031062;28;20476;-50
2023/04/11 01:34:52;;;;;;;8.30;4.00;;;9.90;99.90;;;;;;5029612;28;20432;-49
2023/04/11 01:37:18;;;;;;;5.40;3.53;;;9.90;99.90;;;;;;5027787;28;20214;-50
2023/04/11 01:39:44;;;;;;;4.80;3.60;;;9.90;99.90;;;;;;5029775;28;20438;-49
2023/04/11 01:42:11;;;;;;;6.47;3.90;;;9.90;99.90;;;;;;5030782;28;20518;-49
2023/04/11 01:44:37;;;;;;;3.57;3.07;;;9.80;1.00;;;;;;5029629;28;20662;-49
2023/04/11 01:47:03;;;;;;;10.13;3.50;;;9.80;99.90;;;;;;5033748;28;20490;-50
2023/04/11 01:49:28;;;;;;;4.67;3.40;;;9.90;1.00;;;;;;5030961;28;20673;-49
2023/04/11 01:51:54;;;;;;;5.20;3.77;;;9.80;99.90;;;;;;5031346;28;20179;-50
2023/04/11 01:54:20;;;;;;;5.57;3.40;;;9.90;1.00;;;;;;5032212;28;20209;-49
2023/04/11 01:56:45;;;;;;;4.77;3.53;;;9.80;1.00;;;;;;5028961;28;20554;-49
2023/04/11 01:59:11;;;;;;;5.80;3.30;;;9.80;1.00;;;;;;5027103;28;20666;-50
2023/04/11 02:01:36;;;;;;;3.77;3.30;;;9.80;1.00;;;;;;5030314;28;20558;-49
2023/04/11 02:04:02;;;;;;;4.73;3.47;;;9.80;99.90;;;;;;5031437;28;20321;-49
2023/04/11 02:06:28;;;;;;;11.70;3.43;;;9.70;1.00;;;;;;5030278;28;20194;-49
2023/04/11 02:08:53;;;;;;;4.10;3.00;;;9.70;99.90;;;;;;5028633;28;20230;-50
2023/04/11 02:11:19;;;;;;;4.87;3.33;;;9.60;99.90;;;;;;5030014;28;20282;-49
2023/04/11 02:13:45;;;;;;;4.30;3.50;;;9.60;99.90;;;;;;5026722;28;20192;-49
2023/04/11 02:16:16;;;;;;;6.57;3.50;;;9.50;99.90;;;;;;5030811;28;20184;-48
2023/04/11 02:18:43;;;;;;;8.67;3.70;;;9.50;99.90;;;;;;5029838;28;20465;-49
2023/04/11 02:21:08;;;;;;;7.30;4.00;;;9.50;99.90;;;;;;5029000;28;20444;-50
2023/04/11 02:23:34;;;;;;;8.07;4.47;;;9.50;1.00;;;;;;5029268;28;20450;-50
2023/04/11 02:26:01;;;;;;;9.60;4.70;;;9.40;1.00;;;;;;5029102;28;20593;-50
2023/04/11 02:28:26;;;;;;;6.80;4.20;;;9.40;99.90;;;;;;5029267;28;20660;-50
2023/04/11 02:30:52;;;;;;;7.30;3.97;;;9.40;99.90;;;;;;5028971;28;20478;-49
2023/04/11 02:33:18;;;;;;;5.93;4.33;;;9.40;1.00;;;;;;5030010;28;20612;-50
2023/04/11 02:35:45;;;;;;;8.00;4.37;;;9.50;99.90;;;;;;5028406;28;20485;-49
2023/04/11 02:38:10;;;;;;;9.37;4.73;;;9.50;1.00;;;;;;5029832;28;20188;-49
2023/04/11 02:40:36;;;;;;;8.90;4.20;;;9.50;99.90;;;;;;5025728;28;20441;-48
2023/04/11 02:43:02;;;;;;;7.40;4.70;;;9.50;22.50;;;;;;5029645;28;20738;-50
2023/04/11 02:45:27;;;;;;;9.60;4.70;;;9.40;99.90;;;;;;5028241;28;20193;-49
2023/04/11 02:47:53;;;;;;;8.70;4.77;;;9.50;42.00;;;;;;5029366;28;20670;-49
2023/04/11 02:50:18;;;;;;;8.33;4.87;;;9.40;19.50;;;;;;5029580;28;20219;-50
2023/04/11 02:52:44;;;;;;;9.40;4.63;;;9.50;99.90;;;;;;5028219;28;20222;-49
2023/04/11 02:55:10;;;;;;;7.80;4.60;;;9.60;16.00;;;;;;5034515;28;20192;-49
2023/04/11 02:57:35;;;;;;;7.90;4.90;;;9.50;99.90;;;;;;5028611;28;20190;-49
2023/04/11 03:00:05;;;;;;;10.00;5.70;;;9.50;99.90;;;;;;5029492;28;20195;-49
2023/04/11 03:02:31;;;;;;;6.30;4.50;;;9.50;1.00;;;;;;5026941;28;20240;-49
2023/04/11 03:04:57;;;;;;;6.57;3.87;;;9.40;1.00;;;;;;5029394;28;20446;-50
2023/04/11 03:07:23;;;;;;;7.83;3.60;;;9.40;1.00;;;;;;5028555;28;20464;-49
2023/04/11 03:09:49;;;;;;;2.63;2.23;;;9.30;1.00;;;;;;5028961;28;20230;-50
2023/04/11 03:12:15;;;;;;;3.97;1.80;;;9.10;93.00;;;;;;5030313;28;20214;-50
2023/04/11 03:14:40;;;;;;;2.37;1.57;;;9.00;1.00;;;;;;5027518;28;21250;-49
2023/04/11 03:17:06;;;;;;;1.57;1.20;;;8.80;99.90;;;;;;5029892;28;20248;-50
2023/04/11 03:19:31;;;;;;;1.40;1.13;;;8.70;99.90;;;;;;5027921;28;20215;-50
2023/04/11 03:21:57;;;;;;;2.87;1.10;;;8.60;99.90;;;;;;5028833;28;20256;-51
2023/04/11 03:24:22;;;;;;;4.93;1.23;;;8.50;99.90;;;;;;5030018;28;20187;-51
2023/04/11 03:26:48;;;;;;;1.10;1.00;;;8.50;1.00;;;;;;5027442;28;20612;-51
2023/04/11 03:29:15;;;;;;;2.50;1.30;;;8.40;1.00;;;;;;5029138;28;20223;-50
2023/04/11 03:31:40;;;;;;;4.53;1.40;;;8.40;1.00;;;;;;5028390;28;20663;-50
2023/04/11 03:34:06;;;;;;;4.30;1.30;;;8.30;30.50;;;;;;5029064;28;20437;-50
2023/04/11 03:36:32;;;;;;;4.13;1.33;;;8.30;61.80;;;;;;5025609;28;20649;-50
2023/04/11 03:38:57;;;;;;;1.70;1.20;;;8.30;65.10;;;;;;5028955;28;20202;-50
2023/04/11 03:41:23;;;;;;;1.90;1.20;;;8.30;99.90;;;;;;5027754;28;20244;-50
2023/04/11 03:43:48;;;;;;;2.50;1.60;;;8.30;99.90;;;;;;5028614;28;20190;-51
2023/04/11 03:46:14;;;;;;;2.53;2.20;;;8.20;1.00;;;;;;5026435;28;20326;-50
2023/04/11 03:48:40;;;;;;;2.30;1.60;;;8.20;1.00;;;;;;5027936;28;20235;-51
2023/04/11 03:51:06;;;;;;;5.17;1.50;;;8.20;99.90;;;;;;5028768;28;20561;-51
2023/04/11 03:53:32;;;;;;;1.63;1.40;;;8.10;99.90;;;;;;5027691;28;20205;-50
2023/04/11 03:55:57;;;;;;;1.60;1.20;;;8.10;99.90;;;;;;5030726;28;20446;-50
2023/04/11 03:58:23;;;;;;;1.40;1.30;;;8.10;99.90;;;;;;5029112;28;20266;-51
2023/04/11 04:00:49;;;;;;;5.00;1.20;;;8.10;1.00;;;;;;5029363;28;20757;-50
2023/04/11 04:03:14;;;;;;;1.83;1.10;;;8.10;1.00;;;;;;5027159;28;20249;-50
2023/04/11 04:05:40;;;;;;;2.57;1.30;;;8.00;1.00;;;;;;5033987;28;20202;-51
2023/04/11 04:08:06;;;;;;;1.70;1.30;;;8.10;74.20;;;;;;5029725;28;20201;-50
2023/04/11 04:10:32;;;;;;;3.20;1.50;;;8.10;41.00;;;;;;5031453;28;20623;-50
2023/04/11 04:12:57;;;;;;;2.70;1.20;;;8.00;99.90;;;;;;5033114;28;20186;-50
2023/04/11 04:15:23;;;;;;;1.37;1.20;;;7.90;99.90;;;;;;5030101;28;20250;-51
2023/04/11 04:17:50;;;;;;;4.17;1.40;;;7.90;99.90;;;;;;5035277;28;20190;-50
2023/04/11 04:20:15;;;;;;;3.33;1.43;;;7.90;99.90;;;;;;5032497;28;20445;-51
2023/04/11 04:22:41;;;;;;;3.57;1.87;;;7.90;99.90;;;;;;5030615;28;20957;-51
2023/04/11 04:25:11;;;;;;;1.47;1.37;;;7.90;99.90;;;;;;5032991;28;20195;-50
2023/04/11 04:27:42;;;;;;;1.40;1.17;;;7.80;99.90;;;;;;5030319;28;20215;-51
2023/04/11 04:30:14;;;;;;;1.70;1.60;;;7.80;99.90;;;;;;5033480;28;20478;-50
2023/04/11 04:32:43;;;;;;;4.03;1.60;;;7.80;99.90;;;;;;5030433;28;21177;-50
2023/04/11 04:35:10;;;;;;;2.40;1.20;;;7.80;99.90;;;;;;5033894;28;20496;-50
2023/04/11 04:37:44;;;;;;;2.13;1.33;;;7.70;99.90;;;;;;5029509;28;20460;-49
2023/04/11 04:40:12;;;;;;;2.37;1.43;;;7.80;99.90;;;;;;5030381;28;20434;-50
2023/04/11 04:42:40;;;;;;;3.43;1.57;;;7.80;99.90;;;;;;5030000;28;20472;-50
2023/04/11 04:45:07;;;;;;;2.43;1.20;;;7.70;70.40;;;;;;5031390;28;20520;-51
2023/04/11 04:47:36;;;;;;;2.67;1.10;;;7.70;72.10;;;;;;5031225;28;20575;-51
2023/04/11 04:50:03;;;;;;;2.30;1.23;;;7.70;60.50;;;;;;5032414;28;20818;-51
2023/04/11 04:52:29;;;;;;;2.07;1.13;;;7.70;17.00;;;;;;5031197;28;21487;-50
2023/04/11 04:54:59;;;;;;;9.13;1.30;;;7.60;1.00;;;;;;5031535;28;20804;-50
2023/04/11 04:57:30;;;;;;;1.90;1.27;;;7.70;1.00;;;;;;5032234;28;20441;-50
2023/04/11 04:59:57;;;;;;;7.00;1.63;;;7.60;1.00;;;;;;5030353;28;20449;-50
2023/04/11 05:02:24;;;;;;;3.23;1.10;;;7.60;1.00;;;;;;5031418;28;20434;-51
2023/04/11 05:04:49;;;;;;;4.43;1.60;;;7.60;1.00;;;;;;5031724;28;20544;-50
2023/04/11 05:07:17;;;;;;;1.13;1.03;;;7.60;1.00;;;;;;5028909;28;20997;-50
2023/04/11 05:09:43;;;;;;;3.83;1.77;;;7.60;1.00;;;;;;5028656;28;20687;-49
2023/04/11 05:12:08;;;;;;;1.20;1.10;;;7.60;1.00;;;;;;5030628;28;20480;-50
2023/04/11 05:14:34;;;;;;;1.73;1.23;;;7.50;67.20;;;;;;5030799;28;20446;-50
2023/04/11 05:16:59;;;;;;;2.03;1.40;;;7.60;99.90;;;;;;5029651;28;20194;-50
2023/04/11 05:19:25;;;;;;;1.83;1.30;;;7.50;99.90;;;;;;5030966;28;20191;-50
2023/04/11 05:21:51;;;;;;;3.67;1.47;;;7.50;99.90;;;;;;5030326;28;20176;-49
2023/04/11 05:24:16;;;;;;;5.77;1.67;;;7.50;99.90;;;;;;5026513;28;20184;-50
2023/04/11 05:26:42;;;;;;;3.40;1.70;;;7.50;99.90;;;;;;5031562;28;20187;-50
2023/04/11 05:29:09;;;;;;;5.67;1.70;;;7.50;99.90;;;;;;5031439;28;20313;-49
2023/04/11 05:31:36;;;;;;;2.87;1.70;;;7.50;99.90;;;;;;5028822;28;20620;-49
2023/04/11 05:34:02;;;;;;;1.50;1.40;;;7.60;99.90;;;;;;5028813;28;20481;-50
2023/04/11 05:36:28;;;;;;;4.80;1.87;;;7.60;99.90;;;;;;5029412;28;20879;-50
2023/04/11 05:38:53;;;;;;;3.23;1.60;;;7.60;99.90;;;;;;5027211;28;20438;-49
2023/04/11 05:41:19;;;;;;;4.07;1.57;;;7.60;99.90;;;;;;5025642;28;20195;-49
2023/04/11 05:43:45;;;;;;;4.60;1.53;;;7.60;99.90;;;;;;5031182;28;20562;-49
2023/04/11 05:46:11;;;;;;;8.10;2.20;;;7.50;99.90;;;;;;5031341;28;20196;-49
2023/04/11 05:48:37;;;;;;;4.70;1.90;;;7.60;99.90;;;;;;5028989;28;20414;-49
2023/04/11 05:51:03;;;;;;;1.70;1.60;;;7.60;99.90;;;;;;5028450;28;20572;-49
2023/04/11 05:53:28;;;;;;;5.27;2.07;;;7.60;99.90;;;;;;5029232;28;20234;-49
2023/04/11 05:55:54;;;;;;;3.67;2.00;;;7.70;99.90;;;;;;5030870;28;20861;-49
2023/04/11 05:58:19;;;;;;;5.17;2.10;;;7.70;99.90;;;;;;5029610;28;20224;-49
2023/04/11 06:00:45;;;;;;;5.20;1.80;;;7.80;99.90;;;;;;5028394;28;20195;-49
2023/04/11 06:03:11;;;;;;;4.53;1.90;;;7.90;99.90;;;;;;5031102;28;20184;-49
2023/04/11 06:05:37;;;;;;;4.30;1.97;;;8.00;1.00;;;;;;5027257;28;20191;-50
2023/04/11 06:08:05;;;;;;;3.70;1.90;;;8.00;1.00;;;;;;5031017;28;20488;-50
2023/04/11 06:10:31;;;;;;;3.13;1.67;;;8.00;1.00;;;;;;5029548;28;20831;-50
2023/04/11 06:12:57;;;;;;;3.70;1.80;;;8.00;39.20;;;;;;5030314;28;20667;-50
2023/04/11 06:15:24;;;;;;;5.33;2.10;;;7.90;1.00;;;;;;5028025;28;20191;-49
2023/04/11 06:17:50;;;;;;;4.93;2.00;;;7.90;68.60;;;;;;5029673;28;20435;-50
2023/04/11 06:20:16;;;;;;;7.20;2.07;;;7.90;99.90;;;;;;5029497;28;20964;-50
2023/04/11 06:22:42;;;;;;;4.23;1.80;;;7.90;8.20;;;;;;5028476;28;20184;-50
2023/04/11 06:25:09;;;;;;;7.83;2.47;;;7.90;1.00;;;;;;5030004;28;20206;-50
2023/04/11 06:27:34;;;;;;;4.90;2.30;;;7.90;1.00;;;;;;5028906;28;20446;-49
2023/04/11 06:30:00;;;;;;;5.10;2.70;;;8.00;1.00;;;;;;5030476;28;20527;-49
2023/04/11 06:32:26;;;;;;;4.20;2.63;;;8.00;1.00;;;;;;5029935;28;20648;-49
2023/04/11 06:34:51;;;;;;;7.03;2.53;;;8.00;1.00;;;;;;5030097;28;20188;-49
2023/04/11 06:37:17;;;;;;;9.20;2.60;;;8.00;1.00;;;;;;5027365;28;20807;-50
2023/04/11 06:39:42;;;;;;;5.40;3.07;;;7.90;1.00;;;;;;5028832;28;20197;-49
2023/04/11 06:42:08;;;;;;;11.57;3.00;;;7.90;99.90;;;;;;5029355;28;20182;-49
2023/04/11 06:44:34;;;;;;;8.43;3.20;;;7.90;29.90;;;;;;5028717;28;20195;-49
2023/04/11 06:47:00;;;;;;;6.33;2.90;;;7.90;29.70;;;;;;5030171;28;20699;-49
2023/04/11 06:49:30;;;;;;;6.67;3.40;;;8.00;99.90;;;;;;5028748;28;20489;-50
2023/04/11 06:51:55;;;;;;;4.43;3.50;;;8.00;99.90;;;;;;5029305;28;20201;-50
2023/04/11 06:54:21;;;;;;;7.37;3.30;;;8.10;1.00;;;;;;5030247;28;20438;-49
2023/04/11 06:56:50;;;;;;;9.57;3.70;;;8.10;99.90;;;;;;5029298;28;20675;-49
2023/04/11 06:59:19;;;;;;;7.87;3.87;;;8.10;1.00;;;;;;5027967;28;20541;-50
2023/04/11 07:01:44;;;;;;;7.60;3.60;;;8.10;99.90;;;;;;5030832;28;20445;-50
2023/04/11 07:04:10;;;;;;;5.13;3.57;;;8.10;99.90;;;;;;5029495;28;20442;-51
2023/04/11 07:06:36;;;;;;;9.13;3.83;;;8.20;94.10;;;;;;5030678;28;20184;-50
2023/04/11 07:09:02;;;;;;;7.77;2.67;;;8.20;4.50;;;;;;5028352;28;20628;-50
2023/04/11 07:11:28;;;;;;;7.60;2.37;;;8.20;1.00;;;;;;5028710;28;20691;-51
2023/04/11 07:13:55;;;;;;;3.00;1.80;;;8.10;1.00;;;;;;5029467;28;20474;-51
2023/04/11 07:16:21;;;;;;;3.13;1.30;;;8.00;1.00;;;;;;5029492;28;21496;-51
2023/04/11 07:18:47;;;;;;;3.90;1.60;;;7.90;1.00;;;;;;5029403;28;20990;-51
2023/04/11 07:21:14;;;;;;;1.37;1.00;;;7.80;1.00;;;;;;5028213;28;20436;-51
2023/04/11 07:23:41;;;;;;;2.50;0.90;;;7.70;1.00;;;;;;5029247;28;20496;-53
2023/04/11 07:26:09;;;;;;;1.73;1.13;;;7.60;56.30;;;;;;5029599;28;20787;-52
2023/04/11 07:28:36;;;;;;;0.80;0.80;;;7.50;99.90;;;;;;5028297;28;20492;-51
2023/04/11 07:31:06;;;;;;;2.37;1.27;;;7.40;99.90;;;;;;5025960;28;20822;-51
2023/04/11 07:33:33;;;;;;;2.87;1.10;;;7.40;99.90;;;;;;5028060;28;20453;-51
2023/04/11 07:35:59;;;;;;;2.20;0.90;;;7.40;99.90;;;;;;5028803;28;20854;-51
2023/04/11 07:38:30;;;;;;;2.60;0.87;;;7.40;1.00;;;;;;5031010;28;20453;-50
2023/04/11 07:40:57;;;;;;;1.27;1.00;;;7.50;1.00;;;;;;5030001;28;20705;-51
2023/04/11 07:43:25;;;;;;;2.20;1.10;;;7.50;1.00;;;;;;5032436;28;20441;-50
2023/04/11 07:45:51;;;;;;;2.40;1.10;;;7.50;1.00;;;;;;5033013;28;20438;-52
2023/04/11 07:48:17;;;;;;;1.10;1.00;;;7.50;72.70;;;;;;5032371;28;20535;-50
2023/04/11 07:50:42;;;;;;;1.30;1.00;;;7.50;1.00;;;;;;5032607;28;20478;-50
2023/04/11 07:53:09;;;;;;;2.20;1.20;;;7.50;1.00;;;;;;5032748;28;20195;-53
2023/04/11 07:55:36;;;;;;;2.20;1.00;;;7.50;99.90;;;;;;5034456;28;20647;-50
2023/04/11 07:58:02;;;;;;;2.27;1.10;;;7.40;1.00;;;;;;5033197;28;20448;-51
2023/04/11 08:00:29;;;;;;;1.40;1.20;;;7.50;1.00;;;;;;5031141;28;20437;-50
2023/04/11 08:02:58;;;;;;;1.73;1.30;;;7.40;99.90;;;;;;5028934;28;20725;-50
2023/04/11 08:05:23;;;;;;;2.90;1.50;;;7.40;99.90;;;;;;5032460;28;20532;-52
2023/04/11 08:07:49;;;;;;;4.50;1.47;;;7.40;86.60;;;;;;5033713;28;20524;-50
2023/04/11 08:10:15;;;;;;;1.43;1.30;;;7.40;78.70;;;;;;5031795;28;20221;-50
2023/04/11 08:12:40;;;;;;;3.57;1.67;;;7.30;1.00;;;;;;5033485;28;20252;-50
2023/04/11 08:15:06;;;;;;;8.00;1.50;;;7.20;99.90;;;;;;5032809;28;20187;-50
2023/04/11 08:17:36;;;;;;;2.60;1.67;;;7.20;99.90;;;;;;5032390;28;20184;-51
2023/04/11 08:20:04;;;;;;;2.07;1.37;;;7.10;99.90;;;;;;5032182;28;20456;-51
2023/04/11 08:22:32;;;;;;;2.77;1.80;;;7.10;99.90;;;;;;5032749;28;20500;-51
2023/04/11 08:24:57;;;;;;;1.90;1.60;;;7.20;99.90;;;;;;5032742;28;20446;-50
2023/04/11 08:27:23;;;;;;;3.50;2.10;;;7.20;61.80;;;;;;5032427;28;20460;-50
2023/04/11 08:29:49;;;;;;;4.30;2.00;;;7.30;1.00;;;;;;5033606;28;20615;-51
2023/04/11 08:32:15;;;;;;;4.57;1.70;;;7.40;99.90;;;;;;5031143;28;20210;-51
2023/04/11 08:34:40;;;;;;;3.30;2.20;;;7.50;99.90;;;;;;5031337;28;20202;-51
2023/04/11 08:37:06;;;;;;;4.43;2.00;;;7.60;1.00;;;;;;5031918;28;20266;-50
2023/04/11 08:39:31;;;;;;;6.00;2.03;;;7.70;99.90;;;;;;5032551;28;20188;-50
2023/04/11 08:41:58;;;;;;;3.57;2.20;;;7.80;99.90;;;;;;5032949;28;20723;-50
2023/04/11 08:44:24;;;;;;;7.07;2.00;;;7.80;99.90;;;;;;5031292;28;20239;-50
2023/04/11 08:46:49;;;;;;;11.43;1.90;;;7.80;99.90;;;;;;5032552;28;20482;-50
2023/04/11 08:49:15;;;;;;;6.20;2.70;;;7.80;1.00;;;;;;5032504;28;20211;-50
2023/04/11 08:51:43;;;;;;;6.17;2.53;;;7.80;1.00;;;;;;5029932;28;20198;-50
2023/04/11 08:54:09;;;;;;;4.20;2.50;;;7.70;1.00;;;;;;5030332;28;20257;-50
2023/04/11 08:56:35;;;;;;;6.43;2.73;;;7.70;1.00;;;;;;5031686;28;20521;-50
2023/04/11 08:59:01;;;;;;;5.93;3.60;;;7.70;1.00;;;;;;5031732;28;20430;-50
2023/04/11 09:01:30;;;;;;;6.07;3.33;;;7.80;99.90;;;;;;5031167;28;20441;-51
2023/04/11 09:04:04;;;;;;;8.30;3.47;;;7.90;99.90;;;;;;5029169;28;20188;-50
2023/04/11 09:06:31;;;;;;;4.67;3.10;;;8.10;99.90;;;;;;5029708;28;20457;-50
2023/04/11 09:09:04;;;;;;;6.97;3.70;;;8.20;99.90;;;;;;5029887;28;20812;-51
2023/04/11 09:11:29;;;;;;;6.53;3.93;;;8.50;99.90;;;;;;5030523;28;20442;-50
2023/04/11 09:14:09;;;;;;;8.33;4.70;;;8.60;1.00;;;;;;5032211;28;20466;-50
2023/04/11 09:16:35;;;;;;;5.93;4.10;;;8.70;1.00;;;;;;5031502;28;20274;-50
2023/04/11 09:19:00;;;;;;;7.70;4.93;;;8.70;1.00;;;;;;5030587;28;20441;-50
2023/04/11 09:21:30;;;;;;;7.70;4.57;;;8.70;13.20;;;;;;5029929;28;20496;-50
2023/04/11 09:24:14;;;;;;;7.80;4.47;;;8.80;99.90;;;;;;5030365;28;20213;-50
2023/04/11 09:26:40;;;;;;;17.50;6.20;;;8.80;1.00;;;;;;5031231;28;20519;-50
2023/04/11 09:29:06;;;;;;;11.13;5.60;;;8.80;99.90;;;;;;5031491;28;20933;-51
2023/04/11 09:31:42;;;;;;;15.73;7.33;;;8.80;1.00;;;;;;5031731;28;20194;-50
2023/04/11 09:34:11;;;;;;;12.83;6.10;;;8.90;99.90;;;;;;5029641;28;20306;-50
2023/04/11 09:36:38;;;;;;;9.30;5.13;;;9.00;1.00;;;;;;5031472;28;20434;-51
2023/04/11 09:39:17;;;;;;;9.10;5.47;;;9.00;99.90;;;;;;5029287;28;20962;-50
2023/04/11 09:41:42;;;;;;;9.70;4.90;;;9.10;99.90;;;;;;5031077;28;21333;-50
2023/04/11 09:44:08;;;;;;;7.13;4.63;;;9.30;99.90;;;;;;5031692;28;20528;-50
2023/04/11 09:46:33;;;;;;;8.73;4.30;;;9.40;99.90;;;;;;5030537;28;20198;-51
2023/04/11 09:49:02;;;;;;;5.93;3.90;;;9.50;2.80;;;;;;5028032;28;20199;-51
2023/04/11 09:51:28;;;;;;;9.23;4.00;;;9.60;1.00;;;;;;5031257;28;20191;-50
2023/04/11 09:53:56;;;;;;;6.87;3.30;;;9.80;1.00;;;;;;5029526;28;20804;-51
2023/04/11 09:56:25;;;;;;;4.75;3.10;;;9.90;99.90;;;;;;5012782;28;20503;-52
2023/04/11 09:58:53;;;;;;;6.60;3.00;;;9.90;99.90;;;;;;5021923;28;20222;-51
2023/04/11 10:01:19;;;;;;;7.00;3.23;;;9.90;99.90;;;;;;5030727;28;20442;-50
2023/04/11 10:03:49;;;;;;;3.67;2.90;;;9.70;99.90;;;;;;5031260;28;20442;-50
2023/04/11 10:07:01;;;;;;;6.87;2.90;;;9.50;99.90;;;;;;5027304;28;20492;-51
2023/04/11 10:09:28;;;;;;;9.23;3.10;;;9.30;99.90;;;;;;5027174;28;20481;-51
2023/04/11 10:11:54;;;;;;;5.03;2.83;;;9.10;99.90;;;;;;5029055;28;20438;-50
2023/04/11 10:14:38;;;;;;;5.40;2.77;;;9.00;1.00;;;;;;5030371;28;20833;-51
2023/04/11 10:17:18;;;;;;;6.60;3.00;;;8.80;1.00;;;;;;5027681;28;20436;-51
2023/04/11 10:19:44;;;;;;;2.73;2.37;;;8.80;99.90;;;;;;5031063;28;20520;-52
2023/04/11 10:22:10;;;;;;;4.37;2.93;;;8.60;1.00;;;;;;5029214;28;20537;-51
2023/04/11 10:24:37;;;;;;;3.50;2.50;;;8.60;99.90;;;;;;5029910;28;20540;-51
2023/04/11 10:27:03;;;;;;;2.30;2.10;;;8.50;1.00;;;;;;5025996;28;21326;-52
2023/04/11 10:29:41;;;;;;;5.20;2.20;;;8.60;1.00;;;;;;5029320;28;20814;-51
2023/04/11 10:32:18;;;;;;;3.90;2.43;;;8.70;1.00;;;;;;5026493;28;20441;-52
2023/04/11 10:34:53;;;;;;;4.90;1.90;;;8.90;99.90;;;;;;5028024;28;20450;-52
2023/04/11 10:37:31;;;;;;;2.90;1.80;;;9.00;99.90;;;;;;5028753;28;20793;-51
2023/04/11 10:39:59;;;;;;;2.50;2.30;;;9.10;1.00;;;;;;5028888;28;20969;-53
2023/04/11 10:42:31;;;;;;;7.90;2.37;;;9.10;99.90;;;;;;5027666;28;20437;-51
2023/04/11 10:45:28;;;;;;;3.73;2.00;;;9.10;99.90;;;;;;5029636;28;20500;-52
2023/04/11 10:48:02;;;;;;;3.23;2.00;;;9.10;1.00;;;;;;5029025;28;20845;-52
2023/04/11 10:50:30;;;;;;;2.20;1.60;;;9.00;1.00;;;;;;5028430;28;20480;-51
2023/04/11 10:53:05;;;;;;;1.67;1.40;;;9.10;1.00;;;;;;5027227;28;20441;-52
2023/04/11 10:55:42;;;;;;;3.10;1.17;;;9.20;99.90;;;;;;5027571;28;20441;-51
2023/04/11 10:58:15;;;;;;;3.03;1.33;;;9.10;99.90;;;;;;5028895;28;20534;-53
2023/04/11 11:00:53;;;;;;;1.30;1.03;;;9.10;99.90;;;;;;5031811;28;20458;-52
2023/04/11 11:03:28;;;;;;;1.00;1.00;;;9.10;99.90;;;;;;5028266;28;20438;-52
2023/04/11 11:05:58;;;;;;;1.10;0.87;;;9.00;99.90;;;;;;5031150;28;20445;-51
2023/04/11 11:08:31;;;;;;;4.60;1.20;;;8.90;99.90;;;;;;5028842;28;20950;-52
2023/04/11 11:11:07;;;;;;;2.60;1.10;;;9.20;99.90;;;;;;5031126;28;20573;-52
2023/04/11 11:13:39;;;;;;;1.57;1.03;;;9.30;99.90;;;;;;5028280;28;20438;-51
2023/04/11 11:16:06;;;;;;;3.63;1.30;;;9.40;99.90;;;;;;5032544;28;20445;-51
2023/04/11 11:18:32;;;;;;;2.63;1.30;;;9.50;99.90;;;;;;5030400;28;20472;-51
2023/04/11 11:20:57;;;;;;;3.07;1.00;;;9.50;99.90;;;;;;5030111;28;20484;-51
2023/04/11 11:23:23;;;;;;;1.20;1.10;;;9.30;94.30;;;;;;5030723;28;20541;-51
2023/04/11 11:25:56;;;;;;;1.13;0.83;;;9.40;98.00;;;;;;5030122;28;20198;-50
2023/04/11 11:28:22;;;;;;;2.50;1.13;;;9.40;26.70;;;;;;5026520;28;20183;-51
2023/04/11 11:30:50;;;;;;;3.53;1.07;;;9.40;29.70;;;;;;5030613;28;20478;-52
2023/04/11 11:33:18;;;;;;;2.23;1.30;;;9.30;30.00;;;;;;5029045;28;20496;-51
2023/04/11 11:35:51;;;;;;;1.20;1.10;;;9.20;99.00;;;;;;5028619;28;20449;-52
2023/04/11 11:38:19;;;;;;;3.77;1.50;;;9.30;99.90;;;;;;5029743;28;20583;-52
2023/04/11 11:40:46;;;;;;;6.00;1.50;;;9.20;44.60;;;;;;5028906;28;20460;-51
2023/04/11 11:43:12;;;;;;;2.83;1.33;;;9.10;21.20;;;;;;5031113;28;20438;-51
2023/04/11 11:45:37;;;;;;;1.60;1.50;;;9.00;43.90;;;;;;5028759;28;20460;-52
2023/04/11 11:48:03;;;;;;;4.13;1.80;;;8.80;59.60;;;;;;5027802;28;20350;-52
2023/04/11 11:50:30;;;;;;;5.07;1.60;;;8.70;61.70;;;;;;5028703;28;20234;-51
2023/04/11 11:53:13;;;;;;;1.90;1.70;;;8.80;99.90;;;;;;5029379;28;20638;-50
2023/04/11 11:55:39;;;;;;;3.63;1.60;;;8.80;99.90;;;;;;5027814;28;20962;-52
2023/04/11 11:58:05;;;;;;;4.40;1.60;;;8.80;99.90;;;;;;5029756;28;20449;-52
2023/04/11 12:00:38;;;;;;;5.63;1.63;;;8.80;99.90;;;;;;5028739;28;20957;-51
2023/04/11 12:03:05;;;;;;;2.60;1.40;;;8.90;99.90;;;;;;5029169;28;20517;-52
2023/04/11 12:05:32;;;;;;;6.20;1.87;;;9.10;93.00;;;;;;5028955;28;20516;-52
2023/04/11 12:07:59;;;;;;;3.37;1.40;;;9.00;26.40;;;;;;5028169;28;20445;-52
2023/04/11 12:10:44;;;;;;;3.63;2.30;;;9.10;45.60;;;;;;5029104;28;20526;-52
2023/04/11 12:13:22;;;;;;;5.30;1.93;;;9.60;91.60;;;;;;5030390;28;20802;-52
2023/04/11 12:15:53;;;;;;;2.57;1.50;;;9.90;1.00;;;;;;5028794;28;20442;-52
2023/04/11 12:18:20;;;;;;;4.27;1.57;;;10.30;1.00;;;;;;5028739;28;20810;-51
2023/04/11 12:20:46;;;;;;;5.17;1.70;;;10.50;1.00;;;;;;5026295;28;20498;-52
2023/04/11 12:23:12;;;;;;;1.80;1.47;;;10.60;1.00;;;;;;5029064;28;20434;-52
2023/04/11 12:25:37;;;;;;;3.03;1.50;;;10.80;1.00;;;;;;5031060;28;20210;-52
2023/04/11 12:28:03;;;;;;;1.47;1.30;;;11.10;1.00;;;;;;5033464;28;20194;-52
2023/04/11 12:30:28;;;;;;;2.90;1.53;;;11.60;1.00;;;;;;5032095;28;20217;-52
2023/04/11 12:32:55;;;;;;;3.00;1.50;;;11.80;1.00;;;;;;5032702;28;20561;-51
2023/04/11 12:35:20;;;;;;;6.37;1.70;;;11.80;1.00;;;;;;5031371;28;20188;-51
2023/04/11 12:37:46;;;;;;;2.10;1.27;;;11.80;1.00;;;;;;5033487;28;20442;-51
2023/04/11 12:40:12;;;;;;;4.00;1.50;;;11.50;1.00;;;;;;5032259;28;20190;-51
2023/04/11 12:42:42;;;;;;;2.30;1.50;;;11.10;1.00;;;;;;5032662;28;20197;-51
2023/04/11 12:45:10;;;;;;;7.43;1.63;;;10.60;1.00;;;;;;5032498;28;20193;-51
2023/04/11 12:47:35;;;;;;;5.20;1.50;;;10.20;1.00;;;;;;5031276;28;20474;-51
2023/04/11 12:50:02;;;;;;;1.77;1.10;;;10.10;1.00;;;;;;5032173;28;20476;-51
2023/04/11 12:52:29;;;;;;;2.03;1.30;;;10.10;1.00;;;;;;5031061;28;20202;-52
2023/04/11 12:54:54;;;;;;;2.63;1.30;;;10.30;1.00;;;;;;5032935;28;20446;-51
2023/04/11 12:57:20;;;;;;;2.87;1.20;;;10.40;1.00;;;;;;5030896;28;20428;-51
2023/04/11 12:59:45;;;;;;;2.60;1.50;;;10.50;1.00;;;;;;5031751;28;20211;-52
2023/04/11 13:02:11;;;;;;;1.50;1.40;;;10.50;1.00;;;;;;5032319;28;20218;-51